sensor_id;sensor_type;location;lat;lon;timestamp;temperature;humidity
51982;DHT22;37998;53.416;6.730;2023-06-14T00:01:22;17.70;79.40
51982;DHT22;37998;53.416;6.730;2023-06-14T00:03:48;17.90;79.70
51982;DHT22;37998;53.416;6.730;2023-06-14T00:06:16;17.80;80.00
51982;DHT22;37998;53.416;6.730;2023-06-14T00:08:43;17.80;80.80
51982;DHT22;37998;53.416;6.730;2023-06-14T00:11:09;17.80;80.50
51982;DHT22;37998;53.416;6.730;2023-06-14T00:13:37;17.80;81.20
51982;DHT22;37998;53.416;6.730;2023-06-14T00:16:03;17.70;80.80
51982;DHT22;37998;53.416;6.730;2023-06-14T00:18:29;17.70;80.90
51982;DHT22;37998;53.416;6.730;2023-06-14T00:20:56;17.60;81.10
51982;DHT22;37998;53.416;6.730;2023-06-14T00:23:22;17.60;81.40
51982;DHT22;37998;53.416;6.730;2023-06-14T00:25:48;17.60;81.70
51982;DHT22;37998;53.416;6.730;2023-06-14T00:28:14;17.50;82.00
51982;DHT22;37998;53.416;6.730;2023-06-14T00:30:40;17.50;82.20
51982;DHT22;37998;53.416;6.730;2023-06-14T00:33:06;17.50;82.50
51982;DHT22;37998;53.416;6.730;2023-06-14T00:35:35;17.40;82.60
51982;DHT22;37998;53.416;6.730;2023-06-14T00:38:03;17.40;82.80
51982;DHT22;37998;53.416;6.730;2023-06-14T00:40:30;17.40;83.10
51982;DHT22;37998;53.416;6.730;2023-06-14T00:42:56;17.40;83.40
51982;DHT22;37998;53.416;6.730;2023-06-14T00:45:22;17.40;83.70
51982;DHT22;37998;53.416;6.730;2023-06-14T00:47:49;17.30;83.80
51982;DHT22;37998;53.416;6.730;2023-06-14T00:50:20;17.40;84.30
51982;DHT22;37998;53.416;6.730;2023-06-14T00:52:46;17.30;84.60
51982;DHT22;37998;53.416;6.730;2023-06-14T00:55:12;17.30;85.60
51982;DHT22;37998;53.416;6.730;2023-06-14T00:57:38;17.20;85.20
51982;DHT22;37998;53.416;6.730;2023-06-14T01:00:06;17.20;85.60
51982;DHT22;37998;53.416;6.730;2023-06-14T01:02:36;17.20;86.00
51982;DHT22;37998;53.416;6.730;2023-06-14T01:05:03;16.90;86.10
51982;DHT22;37998;53.416;6.730;2023-06-14T01:10:23;17.10;87.00
51982;DHT22;37998;53.416;6.730;2023-06-14T01:15:44;17.00;88.20
51982;DHT22;37998;53.416;6.730;2023-06-14T01:18:13;17.00;87.90
51982;DHT22;37998;53.416;6.730;2023-06-14T01:20:47;17.00;88.40
51982;DHT22;37998;53.416;6.730;2023-06-14T01:23:17;16.90;88.50
51982;DHT22;37998;53.416;6.730;2023-06-14T01:25:47;16.90;88.80
51982;DHT22;37998;53.416;6.730;2023-06-14T01:28:20;16.90;89.00
51982;DHT22;37998;53.416;6.730;2023-06-14T01:30:49;16.80;89.20
51982;DHT22;37998;53.416;6.730;2023-06-14T01:33:23;16.80;89.40
51982;DHT22;37998;53.416;6.730;2023-06-14T01:35:55;16.80;89.70
51982;DHT22;37998;53.416;6.730;2023-06-14T01:38:24;16.80;90.00
51982;DHT22;37998;53.416;6.730;2023-06-14T01:40:52;16.80;90.10
51982;DHT22;37998;53.416;6.730;2023-06-14T01:43:20;16.70;90.20
51982;DHT22;37998;53.416;6.730;2023-06-14T01:45:47;16.70;90.40
51982;DHT22;37998;53.416;6.730;2023-06-14T01:48:17;16.70;90.50
51982;DHT22;37998;53.416;6.730;2023-06-14T01:50:43;16.70;90.70
51982;DHT22;37998;53.416;6.730;2023-06-14T01:53:10;16.70;90.90
51982;DHT22;37998;53.416;6.730;2023-06-14T01:55:37;16.70;91.00
51982;DHT22;37998;53.416;6.730;2023-06-14T01:58:06;16.60;91.10
51982;DHT22;37998;53.416;6.730;2023-06-14T02:00:32;16.60;91.20
51982;DHT22;37998;53.416;6.730;2023-06-14T02:02:58;16.60;91.30
51982;DHT22;37998;53.416;6.730;2023-06-14T02:05:26;16.60;91.40
51982;DHT22;37998;53.416;6.730;2023-06-14T02:07:55;16.60;91.50
51982;DHT22;37998;53.416;6.730;2023-06-14T02:10:21;16.60;91.70
51982;DHT22;37998;53.416;6.730;2023-06-14T02:12:48;16.60;91.80
51982;DHT22;37998;53.416;6.730;2023-06-14T02:15:14;16.60;92.00
51982;DHT22;37998;53.416;6.730;2023-06-14T02:17:44;16.60;92.30
51982;DHT22;37998;53.416;6.730;2023-06-14T02:20:11;16.50;92.40
51982;DHT22;37998;53.416;6.730;2023-06-14T02:22:37;16.50;92.60
51982;DHT22;37998;53.416;6.730;2023-06-14T02:25:05;16.50;92.80
51982;DHT22;37998;53.416;6.730;2023-06-14T02:27:32;16.50;92.90
51982;DHT22;37998;53.416;6.730;2023-06-14T02:29:58;16.50;93.10
51982;DHT22;37998;53.416;6.730;2023-06-14T02:32:24;16.80;93.30
51982;DHT22;37998;53.416;6.730;2023-06-14T02:34:52;16.40;93.40
51982;DHT22;37998;53.416;6.730;2023-06-14T02:37:19;16.40;93.50
51982;DHT22;37998;53.416;6.730;2023-06-14T02:39:46;16.30;93.70
51982;DHT22;37998;53.416;6.730;2023-06-14T02:42:14;16.30;93.90
51982;DHT22;37998;53.416;6.730;2023-06-14T02:44:41;16.30;94.00
51982;DHT22;37998;53.416;6.730;2023-06-14T02:47:07;16.30;94.20
51982;DHT22;37998;53.416;6.730;2023-06-14T02:49:33;16.30;94.30
51982;DHT22;37998;53.416;6.730;2023-06-14T02:51:59;16.30;94.40
51982;DHT22;37998;53.416;6.730;2023-06-14T02:54:28;16.20;94.50
51982;DHT22;37998;53.416;6.730;2023-06-14T02:56:54;16.20;94.70
51982;DHT22;37998;53.416;6.730;2023-06-14T02:59:20;16.20;94.80
51982;DHT22;37998;53.416;6.730;2023-06-14T03:01:48;16.20;94.90
51982;DHT22;37998;53.416;6.730;2023-06-14T03:04:14;16.20;95.10
51982;DHT22;37998;53.416;6.730;2023-06-14T03:06:41;16.20;95.30
51982;DHT22;37998;53.416;6.730;2023-06-14T03:09:10;16.10;95.50
51982;DHT22;37998;53.416;6.730;2023-06-14T03:11:38;16.10;95.70
51982;DHT22;37998;53.416;6.730;2023-06-14T03:14:04;16.10;95.90
51982;DHT22;37998;53.416;6.730;2023-06-14T03:16:32;16.10;96.10
51982;DHT22;37998;53.416;6.730;2023-06-14T03:18:59;16.00;96.30
51982;DHT22;37998;53.416;6.730;2023-06-14T03:21:29;16.00;96.60
51982;DHT22;37998;53.416;6.730;2023-06-14T03:23:59;16.00;96.70
51982;DHT22;37998;53.416;6.730;2023-06-14T03:26:25;16.00;96.90
51982;DHT22;37998;53.416;6.730;2023-06-14T03:28:53;16.00;97.10
51982;DHT22;37998;53.416;6.730;2023-06-14T03:31:21;16.00;97.30
51982;DHT22;37998;53.416;6.730;2023-06-14T03:33:48;15.90;97.50
51982;DHT22;37998;53.416;6.730;2023-06-14T03:36:14;15.90;97.80
51982;DHT22;37998;53.416;6.730;2023-06-14T03:38:40;15.90;98.00
51982;DHT22;37998;53.416;6.730;2023-06-14T03:41:06;15.90;98.20
51982;DHT22;37998;53.416;6.730;2023-06-14T03:43:32;15.80;98.40
51982;DHT22;37998;53.416;6.730;2023-06-14T03:45:59;15.90;98.80
51982;DHT22;37998;53.416;6.730;2023-06-14T03:48:29;15.80;99.00
51982;DHT22;37998;53.416;6.730;2023-06-14T03:50:55;15.80;99.20
51982;DHT22;37998;53.416;6.730;2023-06-14T03:53:26;15.80;99.50
51982;DHT22;37998;53.416;6.730;2023-06-14T03:55:54;15.80;99.80
51982;DHT22;37998;53.416;6.730;2023-06-14T03:58:23;15.70;99.90
51982;DHT22;37998;53.416;6.730;2023-06-14T04:00:49;15.80;99.90
51982;DHT22;37998;53.416;6.730;2023-06-14T04:03:15;15.70;99.90
51982;DHT22;37998;53.416;6.730;2023-06-14T04:05:42;15.80;99.90
51982;DHT22;37998;53.416;6.730;2023-06-14T04:08:11;15.80;99.90
51982;DHT22;37998;53.416;6.730;2023-06-14T04:10:40;15.80;99.90
51982;DHT22;37998;53.416;6.730;2023-06-14T04:13:07;15.60;99.90
51982;DHT22;37998;53.416;6.730;2023-06-14T04:15:33;15.90;99.90
51982;DHT22;37998;53.416;6.730;2023-06-14T04:18:00;15.90;99.90
51982;DHT22;37998;53.416;6.730;2023-06-14T04:20:26;15.90;99.90
51982;DHT22;37998;53.416;6.730;2023-06-14T04:22:52;16.00;99.90
51982;DHT22;37998;53.416;6.730;2023-06-14T04:25:25;16.00;99.90
51982;DHT22;37998;53.416;6.730;2023-06-14T04:27:53;15.90;99.90
51982;DHT22;37998;53.416;6.730;2023-06-14T04:30:21;15.90;99.90
51982;DHT22;37998;53.416;6.730;2023-06-14T04:32:52;15.90;99.90
51982;DHT22;37998;53.416;6.730;2023-06-14T04:35:22;16.00;99.90
51982;DHT22;37998;53.416;6.730;2023-06-14T04:37:50;16.00;99.90
51982;DHT22;37998;53.416;6.730;2023-06-14T04:40:17;16.00;99.90
51982;DHT22;37998;53.416;6.730;2023-06-14T04:42:43;16.00;99.90
51982;DHT22;37998;53.416;6.730;2023-06-14T04:45:12;16.10;99.90
51982;DHT22;37998;53.416;6.730;2023-06-14T04:47:39;16.10;99.90
51982;DHT22;37998;53.416;6.730;2023-06-14T04:50:06;16.10;99.90
51982;DHT22;37998;53.416;6.730;2023-06-14T04:52:32;16.20;99.90
51982;DHT22;37998;53.416;6.730;2023-06-14T04:55:02;16.20;99.90
51982;DHT22;37998;53.416;6.730;2023-06-14T04:57:28;16.30;99.90
51982;DHT22;37998;53.416;6.730;2023-06-14T04:59:57;16.30;99.90
51982;DHT22;37998;53.416;6.730;2023-06-14T05:02:26;16.30;99.90
51982;DHT22;37998;53.416;6.730;2023-06-14T05:04:54;16.40;99.90
51982;DHT22;37998;53.416;6.730;2023-06-14T05:07:23;16.40;99.90
51982;DHT22;37998;53.416;6.730;2023-06-14T05:09:50;16.40;99.90
51982;DHT22;37998;53.416;6.730;2023-06-14T05:12:19;16.50;99.90
51982;DHT22;37998;53.416;6.730;2023-06-14T05:14:49;16.50;99.90
51982;DHT22;37998;53.416;6.730;2023-06-14T05:17:17;16.60;99.90
51982;DHT22;37998;53.416;6.730;2023-06-14T05:19:49;16.60;99.90
51982;DHT22;37998;53.416;6.730;2023-06-14T05:22:15;16.60;99.90
51982;DHT22;37998;53.416;6.730;2023-06-14T05:24:41;16.70;99.90
51982;DHT22;37998;53.416;6.730;2023-06-14T05:27:07;16.70;99.90
51982;DHT22;37998;53.416;6.730;2023-06-14T05:29:33;16.80;99.90
51982;DHT22;37998;53.416;6.730;2023-06-14T05:31:59;16.80;99.90
51982;DHT22;37998;53.416;6.730;2023-06-14T05:34:25;16.90;99.90
51982;DHT22;37998;53.416;6.730;2023-06-14T05:36:51;16.90;99.90
51982;DHT22;37998;53.416;6.730;2023-06-14T05:39:17;16.90;99.90
51982;DHT22;37998;53.416;6.730;2023-06-14T05:41:43;17.00;99.90
51982;DHT22;37998;53.416;6.730;2023-06-14T05:44:09;17.00;99.90
51982;DHT22;37998;53.416;6.730;2023-06-14T05:46:35;17.10;99.90
51982;DHT22;37998;53.416;6.730;2023-06-14T05:49:00;17.10;99.90
51982;DHT22;37998;53.416;6.730;2023-06-14T05:51:26;17.10;99.90
51982;DHT22;37998;53.416;6.730;2023-06-14T05:53:52;17.20;99.90
51982;DHT22;37998;53.416;6.730;2023-06-14T05:56:21;17.20;99.90
51982;DHT22;37998;53.416;6.730;2023-06-14T05:58:47;17.20;99.90
51982;DHT22;37998;53.416;6.730;2023-06-14T06:01:13;17.30;99.90
51982;DHT22;37998;53.416;6.730;2023-06-14T06:03:41;17.30;99.90
51982;DHT22;37998;53.416;6.730;2023-06-14T06:06:12;17.30;99.90
51982;DHT22;37998;53.416;6.730;2023-06-14T06:08:44;17.40;99.90
51982;DHT22;37998;53.416;6.730;2023-06-14T06:11:10;17.40;99.90
51982;DHT22;37998;53.416;6.730;2023-06-14T06:13:36;17.50;99.90
51982;DHT22;37998;53.416;6.730;2023-06-14T06:16:03;17.60;99.90
51982;DHT22;37998;53.416;6.730;2023-06-14T06:18:32;17.70;99.90
51982;DHT22;37998;53.416;6.730;2023-06-14T06:20:58;17.70;99.90
51982;DHT22;37998;53.416;6.730;2023-06-14T06:23:24;17.80;99.90
51982;DHT22;37998;53.416;6.730;2023-06-14T06:25:50;17.90;99.90
51982;DHT22;37998;53.416;6.730;2023-06-14T06:28:16;17.90;99.80
51982;DHT22;37998;53.416;6.730;2023-06-14T06:30:42;18.00;99.40
51982;DHT22;37998;53.416;6.730;2023-06-14T06:33:08;18.00;99.20
51982;DHT22;37998;53.416;6.730;2023-06-14T06:35:34;18.10;99.10
51982;DHT22;37998;53.416;6.730;2023-06-14T06:38:00;18.20;98.90
51982;DHT22;37998;53.416;6.730;2023-06-14T06:40:29;18.20;98.80
51982;DHT22;37998;53.416;6.730;2023-06-14T06:42:55;18.20;98.70
51982;DHT22;37998;53.416;6.730;2023-06-14T06:45:21;18.40;98.50
51982;DHT22;37998;53.416;6.730;2023-06-14T06:47:49;18.40;98.60
51982;DHT22;37998;53.416;6.730;2023-06-14T06:50:15;18.50;98.40
51982;DHT22;37998;53.416;6.730;2023-06-14T06:52:41;18.60;98.10
51982;DHT22;37998;53.416;6.730;2023-06-14T06:55:08;18.70;97.90
51982;DHT22;37998;53.416;6.730;2023-06-14T06:57:34;18.90;97.90
51982;DHT22;37998;53.416;6.730;2023-06-14T07:00:00;19.10;97.20
51982;DHT22;37998;53.416;6.730;2023-06-14T07:02:26;19.20;96.90
51982;DHT22;37998;53.416;6.730;2023-06-14T07:04:52;19.40;96.60
51982;DHT22;37998;53.416;6.730;2023-06-14T07:07:18;19.50;96.30
51982;DHT22;37998;53.416;6.730;2023-06-14T07:09:46;19.70;95.90
51982;DHT22;37998;53.416;6.730;2023-06-14T07:12:12;19.90;95.40
51982;DHT22;37998;53.416;6.730;2023-06-14T07:14:38;20.10;94.80
51982;DHT22;37998;53.416;6.730;2023-06-14T07:17:04;20.20;94.50
51982;DHT22;37998;53.416;6.730;2023-06-14T07:19:31;20.30;94.10
51982;DHT22;37998;53.416;6.730;2023-06-14T07:21:57;20.50;93.50
51982;DHT22;37998;53.416;6.730;2023-06-14T07:24:23;20.50;93.10
51982;DHT22;37998;53.416;6.730;2023-06-14T07:26:49;20.60;93.00
51982;DHT22;37998;53.416;6.730;2023-06-14T07:29:15;20.70;92.80
51982;DHT22;37998;53.416;6.730;2023-06-14T07:31:42;20.80;92.50
51982;DHT22;37998;53.416;6.730;2023-06-14T07:34:08;20.90;91.90
51982;DHT22;37998;53.416;6.730;2023-06-14T07:36:37;21.00;91.80
51982;DHT22;37998;53.416;6.730;2023-06-14T07:39:04;21.00;91.90
51982;DHT22;37998;53.416;6.730;2023-06-14T07:41:32;21.20;91.70
51982;DHT22;37998;53.416;6.730;2023-06-14T07:43:59;21.30;91.50
51982;DHT22;37998;53.416;6.730;2023-06-14T07:46:28;21.30;91.30
51982;DHT22;37998;53.416;6.730;2023-06-14T07:48:54;21.50;91.30
51982;DHT22;37998;53.416;6.730;2023-06-14T07:51:20;21.30;90.80
51982;DHT22;37998;53.416;6.730;2023-06-14T07:53:48;21.60;90.60
51982;DHT22;37998;53.416;6.730;2023-06-14T07:56:16;21.70;90.20
51982;DHT22;37998;53.416;6.730;2023-06-14T07:58:43;21.70;89.60
51982;DHT22;37998;53.416;6.730;2023-06-14T08:01:09;21.80;89.20
51982;DHT22;37998;53.416;6.730;2023-06-14T08:03:36;21.80;89.10
51982;DHT22;37998;53.416;6.730;2023-06-14T08:06:02;22.00;88.30
51982;DHT22;37998;53.416;6.730;2023-06-14T08:08:28;22.00;87.30
51982;DHT22;37998;53.416;6.730;2023-06-14T08:10:54;22.20;87.10
51982;DHT22;37998;53.416;6.730;2023-06-14T08:13:20;22.30;85.90
51982;DHT22;37998;53.416;6.730;2023-06-14T08:15:46;22.50;85.40
51982;DHT22;37998;53.416;6.730;2023-06-14T08:18:14;22.70;85.00
51982;DHT22;37998;53.416;6.730;2023-06-14T08:20:43;22.90;84.30
51982;DHT22;37998;53.416;6.730;2023-06-14T08:23:10;23.20;83.80
51982;DHT22;37998;53.416;6.730;2023-06-14T08:25:36;23.40;83.50
51982;DHT22;37998;53.416;6.730;2023-06-14T08:28:02;23.60;83.10
51982;DHT22;37998;53.416;6.730;2023-06-14T08:30:28;23.60;82.20
51982;DHT22;37998;53.416;6.730;2023-06-14T08:32:53;23.50;81.60
51982;DHT22;37998;53.416;6.730;2023-06-14T08:35:24;23.50;81.10
51982;DHT22;37998;53.416;6.730;2023-06-14T08:37:50;23.40;80.70
51982;DHT22;37998;53.416;6.730;2023-06-14T08:40:21;23.20;80.20
51982;DHT22;37998;53.416;6.730;2023-06-14T08:42:51;23.10;80.30
51982;DHT22;37998;53.416;6.730;2023-06-14T08:45:20;23.00;80.10
51982;DHT22;37998;53.416;6.730;2023-06-14T08:47:47;23.00;80.70
51982;DHT22;37998;53.416;6.730;2023-06-14T08:50:21;23.00;80.70
51982;DHT22;37998;53.416;6.730;2023-06-14T08:52:54;23.10;80.20
51982;DHT22;37998;53.416;6.730;2023-06-14T08:55:22;23.10;80.50
51982;DHT22;37998;53.416;6.730;2023-06-14T08:57:57;23.00;80.20
51982;DHT22;37998;53.416;6.730;2023-06-14T09:00:27;22.90;80.20
51982;DHT22;37998;53.416;6.730;2023-06-14T09:02:56;22.90;80.10
51982;DHT22;37998;53.416;6.730;2023-06-14T09:05:26;22.90;80.20
51982;DHT22;37998;53.416;6.730;2023-06-14T09:07:53;23.00;80.20
51982;DHT22;37998;53.416;6.730;2023-06-14T09:10:25;23.10;79.70
51982;DHT22;37998;53.416;6.730;2023-06-14T09:12:53;23.10;79.40
51982;DHT22;37998;53.416;6.730;2023-06-14T09:15:21;23.10;79.60
51982;DHT22;37998;53.416;6.730;2023-06-14T09:17:48;23.10;79.80
51982;DHT22;37998;53.416;6.730;2023-06-14T09:20:14;23.20;78.90
51982;DHT22;37998;53.416;6.730;2023-06-14T09:22:44;23.30;78.70
51982;DHT22;37998;53.416;6.730;2023-06-14T09:25:13;23.30;78.70
51982;DHT22;37998;53.416;6.730;2023-06-14T09:27:41;23.40;79.00
51982;DHT22;37998;53.416;6.730;2023-06-14T09:30:12;23.50;78.70
51982;DHT22;37998;53.416;6.730;2023-06-14T09:32:39;23.60;78.60
51982;DHT22;37998;53.416;6.730;2023-06-14T09:35:09;23.60;78.50
51982;DHT22;37998;53.416;6.730;2023-06-14T09:37:36;24.40;78.50
51982;DHT22;37998;53.416;6.730;2023-06-14T09:40:04;23.90;77.30
51982;DHT22;37998;53.416;6.730;2023-06-14T09:42:30;24.00;77.30
51982;DHT22;37998;53.416;6.730;2023-06-14T09:45:00;24.10;77.30
51982;DHT22;37998;53.416;6.730;2023-06-14T09:47:27;24.20;77.30
51982;DHT22;37998;53.416;6.730;2023-06-14T09:49:52;24.20;76.70
51982;DHT22;37998;53.416;6.730;2023-06-14T09:52:24;24.10;75.90
51982;DHT22;37998;53.416;6.730;2023-06-14T09:54:52;24.10;75.10
51982;DHT22;37998;53.416;6.730;2023-06-14T09:57:22;24.10;75.00
51982;DHT22;37998;53.416;6.730;2023-06-14T09:59:52;24.00;74.60
51982;DHT22;37998;53.416;6.730;2023-06-14T10:02:25;24.10;74.60
51982;DHT22;37998;53.416;6.730;2023-06-14T10:05:04;24.10;74.40
51982;DHT22;37998;53.416;6.730;2023-06-14T10:10:13;24.20;73.20
51982;DHT22;37998;53.416;6.730;2023-06-14T10:12:42;24.10;73.50
51982;DHT22;37998;53.416;6.730;2023-06-14T10:15:10;24.20;72.80
51982;DHT22;37998;53.416;6.730;2023-06-14T10:17:46;24.10;72.60
51982;DHT22;37998;53.416;6.730;2023-06-14T10:22:51;24.20;73.20
51982;DHT22;37998;53.416;6.730;2023-06-14T10:25:29;24.20;72.40
51982;DHT22;37998;53.416;6.730;2023-06-14T10:28:16;24.20;73.00
51982;DHT22;37998;53.416;6.730;2023-06-14T10:33:30;24.70;72.00
51982;DHT22;37998;53.416;6.730;2023-06-14T10:38:37;24.70;70.40
51982;DHT22;37998;53.416;6.730;2023-06-14T10:41:04;24.40;70.50
51982;DHT22;37998;53.416;6.730;2023-06-14T10:43:34;24.50;71.70
51982;DHT22;37998;53.416;6.730;2023-06-14T10:46:19;24.50;71.00
51982;DHT22;37998;53.416;6.730;2023-06-14T10:48:48;24.70;71.00
51982;DHT22;37998;53.416;6.730;2023-06-14T10:51:20;24.70;74.00
51982;DHT22;37998;53.416;6.730;2023-06-14T10:53:47;24.70;78.00
51982;DHT22;37998;53.416;6.730;2023-06-14T10:56:27;24.40;79.90
51982;DHT22;37998;53.416;6.730;2023-06-14T10:58:54;24.30;82.10
51982;DHT22;37998;53.416;6.730;2023-06-14T11:01:36;24.10;82.80
51982;DHT22;37998;53.416;6.730;2023-06-14T11:04:07;24.00;84.30
51982;DHT22;37998;53.416;6.730;2023-06-14T11:06:50;23.90;83.40
51982;DHT22;37998;53.416;6.730;2023-06-14T11:12:10;23.60;85.40
51982;DHT22;37998;53.416;6.730;2023-06-14T11:14:38;23.60;86.80
51982;DHT22;37998;53.416;6.730;2023-06-14T11:17:04;23.70;86.70
51982;DHT22;37998;53.416;6.730;2023-06-14T11:19:34;23.70;85.60
51982;DHT22;37998;53.416;6.730;2023-06-14T11:22:00;23.60;86.60
51982;DHT22;37998;53.416;6.730;2023-06-14T11:24:26;23.50;88.60
51982;DHT22;37998;53.416;6.730;2023-06-14T11:26:52;23.60;87.40
51982;DHT22;37998;53.416;6.730;2023-06-14T11:29:20;23.80;86.20
51982;DHT22;37998;53.416;6.730;2023-06-14T11:31:46;24.00;86.10
51982;DHT22;37998;53.416;6.730;2023-06-14T11:34:13;24.00;85.30
51982;DHT22;37998;53.416;6.730;2023-06-14T11:36:39;24.00;86.00
51982;DHT22;37998;53.416;6.730;2023-06-14T11:39:07;24.10;87.10
51982;DHT22;37998;53.416;6.730;2023-06-14T11:41:40;24.20;87.80
51982;DHT22;37998;53.416;6.730;2023-06-14T11:44:07;24.20;88.30
51982;DHT22;37998;53.416;6.730;2023-06-14T11:46:33;24.00;89.40
51982;DHT22;37998;53.416;6.730;2023-06-14T11:48:59;24.00;89.50
51982;DHT22;37998;53.416;6.730;2023-06-14T11:51:31;23.90;89.80
51982;DHT22;37998;53.416;6.730;2023-06-14T11:53:57;23.80;90.50
51982;DHT22;37998;53.416;6.730;2023-06-14T11:56:24;24.00;90.50
51982;DHT22;37998;53.416;6.730;2023-06-14T11:58:52;24.30;89.50
51982;DHT22;37998;53.416;6.730;2023-06-14T12:01:19;24.50;88.10
51982;DHT22;37998;53.416;6.730;2023-06-14T12:03:51;24.50;87.50
51982;DHT22;37998;53.416;6.730;2023-06-14T12:06:30;24.40;87.30
51982;DHT22;37998;53.416;6.730;2023-06-14T12:08:59;24.20;87.70
51982;DHT22;37998;53.416;6.730;2023-06-14T12:11:34;24.20;88.80
51982;DHT22;37998;53.416;6.730;2023-06-14T12:14:03;24.10;87.20
51982;DHT22;37998;53.416;6.730;2023-06-14T12:16:31;24.10;87.70
51982;DHT22;37998;53.416;6.730;2023-06-14T12:21:37;24.20;88.00
51982;DHT22;37998;53.416;6.730;2023-06-14T12:24:04;24.20;86.90
51982;DHT22;37998;53.416;6.730;2023-06-14T12:26:32;23.90;85.50
51982;DHT22;37998;53.416;6.730;2023-06-14T12:28:58;23.60;86.20
51982;DHT22;37998;53.416;6.730;2023-06-14T12:31:25;23.40;87.50
51982;DHT22;37998;53.416;6.730;2023-06-14T12:33:52;23.50;88.40
51982;DHT22;37998;53.416;6.730;2023-06-14T12:36:19;23.50;88.30
51982;DHT22;37998;53.416;6.730;2023-06-14T12:38:45;23.50;88.60
51982;DHT22;37998;53.416;6.730;2023-06-14T12:41:12;23.60;88.50
51982;DHT22;37998;53.416;6.730;2023-06-14T12:43:40;23.70;89.10
51982;DHT22;37998;53.416;6.730;2023-06-14T12:46:06;23.80;89.30
51982;DHT22;37998;53.416;6.730;2023-06-14T12:48:32;23.80;88.80
51982;DHT22;37998;53.416;6.730;2023-06-14T12:50:59;23.60;88.20
51982;DHT22;37998;53.416;6.730;2023-06-14T12:53:26;23.60;88.80
51982;DHT22;37998;53.416;6.730;2023-06-14T12:55:51;23.50;89.00
51982;DHT22;37998;53.416;6.730;2023-06-14T12:58:17;23.40;89.50
51982;DHT22;37998;53.416;6.730;2023-06-14T13:00:46;23.50;89.60
51982;DHT22;37998;53.416;6.730;2023-06-14T13:03:12;23.60;88.90
51982;DHT22;37998;53.416;6.730;2023-06-14T13:05:38;23.90;89.20
51982;DHT22;37998;53.416;6.730;2023-06-14T13:08:07;24.00;88.60
51982;DHT22;37998;53.416;6.730;2023-06-14T13:10:34;23.80;88.00
51982;DHT22;37998;53.416;6.730;2023-06-14T13:13:00;23.80;88.30
51982;DHT22;37998;53.416;6.730;2023-06-14T13:15:26;23.90;88.20
51982;DHT22;37998;53.416;6.730;2023-06-14T13:17:53;24.10;87.90
51982;DHT22;37998;53.416;6.730;2023-06-14T13:20:19;24.10;87.00
51982;DHT22;37998;53.416;6.730;2023-06-14T13:22:45;24.10;87.40
51982;DHT22;37998;53.416;6.730;2023-06-14T13:25:11;24.10;87.60
51982;DHT22;37998;53.416;6.730;2023-06-14T13:27:37;24.00;86.80
51982;DHT22;37998;53.416;6.730;2023-06-14T13:30:03;24.00;87.10
51982;DHT22;37998;53.416;6.730;2023-06-14T13:32:31;24.00;86.60
51982;DHT22;37998;53.416;6.730;2023-06-14T13:34:57;24.00;86.20
51982;DHT22;37998;53.416;6.730;2023-06-14T13:37:23;23.90;86.10
51982;DHT22;37998;53.416;6.730;2023-06-14T13:39:52;23.80;86.00
51982;DHT22;37998;53.416;6.730;2023-06-14T13:42:18;23.70;86.10
51982;DHT22;37998;53.416;6.730;2023-06-14T13:44:44;23.60;86.20
51982;DHT22;37998;53.416;6.730;2023-06-14T13:47:10;23.70;85.80
51982;DHT22;37998;53.416;6.730;2023-06-14T13:49:36;23.70;85.30
51982;DHT22;37998;53.416;6.730;2023-06-14T13:52:03;23.80;84.90
51982;DHT22;37998;53.416;6.730;2023-06-14T13:54:29;23.60;84.80
51982;DHT22;37998;53.416;6.730;2023-06-14T13:56:55;23.50;85.60
51982;DHT22;37998;53.416;6.730;2023-06-14T13:59:41;23.60;86.00
51982;DHT22;37998;53.416;6.730;2023-06-14T14:02:07;23.70;84.90
51982;DHT22;37998;53.416;6.730;2023-06-14T14:04:33;23.80;85.10
51982;DHT22;37998;53.416;6.730;2023-06-14T14:07:01;23.80;84.60
51982;DHT22;37998;53.416;6.730;2023-06-14T14:09:27;23.70;84.30
51982;DHT22;37998;53.416;6.730;2023-06-14T14:11:54;23.60;84.90
51982;DHT22;37998;53.416;6.730;2023-06-14T14:14:21;23.60;85.60
51982;DHT22;37998;53.416;6.730;2023-06-14T14:16:52;23.60;84.90
51982;DHT22;37998;53.416;6.730;2023-06-14T14:19:19;23.70;84.90
51982;DHT22;37998;53.416;6.730;2023-06-14T14:21:45;23.60;84.20
51982;DHT22;37998;53.416;6.730;2023-06-14T14:24:11;23.50;84.30
51982;DHT22;37998;53.416;6.730;2023-06-14T14:26:37;23.50;84.40
51982;DHT22;37998;53.416;6.730;2023-06-14T14:29:02;23.50;84.80
51982;DHT22;37998;53.416;6.730;2023-06-14T14:31:29;23.60;84.70
51982;DHT22;37998;53.416;6.730;2023-06-14T14:33:56;23.70;84.30
51982;DHT22;37998;53.416;6.730;2023-06-14T14:36:22;23.70;84.10
51982;DHT22;37998;53.416;6.730;2023-06-14T14:38:48;23.80;84.80
51982;DHT22;37998;53.416;6.730;2023-06-14T14:41:13;23.90;83.60
51982;DHT22;37998;53.416;6.730;2023-06-14T14:43:42;24.00;83.50
51982;DHT22;37998;53.416;6.730;2023-06-14T14:46:08;24.00;83.40
51982;DHT22;37998;53.416;6.730;2023-06-14T14:48:35;24.10;83.50
51982;DHT22;37998;53.416;6.730;2023-06-14T14:51:01;24.10;83.80
51982;DHT22;37998;53.416;6.730;2023-06-14T14:53:27;23.90;83.90
51982;DHT22;37998;53.416;6.730;2023-06-14T14:55:53;23.80;84.50
51982;DHT22;37998;53.416;6.730;2023-06-14T14:58:19;23.70;85.10
51982;DHT22;37998;53.416;6.730;2023-06-14T15:00:46;23.60;85.30
51982;DHT22;37998;53.416;6.730;2023-06-14T15:03:15;23.60;86.00
51982;DHT22;37998;53.416;6.730;2023-06-14T15:05:41;23.60;86.20
51982;DHT22;37998;53.416;6.730;2023-06-14T15:08:06;23.50;85.50
51982;DHT22;37998;53.416;6.730;2023-06-14T15:10:40;23.40;85.20
51982;DHT22;37998;53.416;6.730;2023-06-14T15:13:07;23.30;85.60
51982;DHT22;37998;53.416;6.730;2023-06-14T15:15:34;23.40;86.50
51982;DHT22;37998;53.416;6.730;2023-06-14T15:18:03;23.40;86.60
51982;DHT22;37998;53.416;6.730;2023-06-14T15:20:29;23.20;85.80
51982;DHT22;37998;53.416;6.730;2023-06-14T15:22:55;23.20;86.80
51982;DHT22;37998;53.416;6.730;2023-06-14T15:25:30;23.20;87.30
51982;DHT22;37998;53.416;6.730;2023-06-14T15:28:01;23.20;87.60
51982;DHT22;37998;53.416;6.730;2023-06-14T15:30:28;23.30;87.80
51982;DHT22;37998;53.416;6.730;2023-06-14T15:32:54;23.20;87.10
51982;DHT22;37998;53.416;6.730;2023-06-14T15:35:20;23.20;87.50
51982;DHT22;37998;53.416;6.730;2023-06-14T15:37:47;23.10;87.50
51982;DHT22;37998;53.416;6.730;2023-06-14T15:40:13;23.10;87.90
51982;DHT22;37998;53.416;6.730;2023-06-14T15:42:39;23.20;88.10
51982;DHT22;37998;53.416;6.730;2023-06-14T15:45:05;23.00;88.30
51982;DHT22;37998;53.416;6.730;2023-06-14T15:47:31;22.80;88.20
51982;DHT22;37998;53.416;6.730;2023-06-14T15:49:57;22.80;88.40
51982;DHT22;37998;53.416;6.730;2023-06-14T15:52:23;22.80;88.50
51982;DHT22;37998;53.416;6.730;2023-06-14T15:54:49;22.70;88.60